createdAt,value
2018-10-06T00:01:24.449Z,10.27
2018-10-06T00:03:52.585Z,10.20
2018-10-06T00:06:20.702Z,11.80
2018-10-06T00:08:48.839Z,10.43
2018-10-06T00:11:17.274Z,11.30
2018-10-06T00:13:45.410Z,13.63
2018-10-06T00:16:13.598Z,10.37
2018-10-06T00:18:41.786Z,10.63
2018-10-06T00:21:09.906Z,12.27
2018-10-06T00:23:38.042Z,10.93
2018-10-06T00:26:06.605Z,10.73
2018-10-06T00:28:34.729Z,11.93
2018-10-06T00:31:02.951Z,12.07
2018-10-06T00:33:31.143Z,13.00
2018-10-06T00:35:59.285Z,11.27
2018-10-06T00:38:27.418Z,11.57
2018-10-06T00:40:55.558Z,14.30
2018-10-06T00:43:23.681Z,9.77
2018-10-06T00:45:51.821Z,11.73
2018-10-06T00:48:20.000Z,12.33
2018-10-06T00:50:48.121Z,11.47
2018-10-06T00:53:16.293Z,13.33
2018-10-06T00:55:44.416Z,11.50
2018-10-06T00:58:12.533Z,10.47
2018-10-06T01:00:40.669Z,12.13
2018-10-06T01:03:08.797Z,13.23
2018-10-06T01:05:36.931Z,10.50
2018-10-06T01:08:05.058Z,16.00
2018-10-06T01:10:33.198Z,13.93
2018-10-06T01:13:01.326Z,10.50
2018-10-06T01:15:29.475Z,14.73
2018-10-06T01:17:57.624Z,15.33
2018-10-06T01:20:25.774Z,15.53
2018-10-06T01:22:53.909Z,14.77
2018-10-06T01:25:22.031Z,13.10
2018-10-06T01:27:50.150Z,11.63
2018-10-06T01:30:18.274Z,11.87
2018-10-06T01:32:46.421Z,11.17
2018-10-06T01:35:14.545Z,11.60
2018-10-06T01:37:42.681Z,11.37
2018-10-06T01:40:10.817Z,11.73
2018-10-06T01:42:38.969Z,12.77
2018-10-06T01:45:07.529Z,12.68
2018-10-06T01:47:35.673Z,11.07
2018-10-06T01:50:03.983Z,12.17
2018-10-06T01:52:32.106Z,10.93
2018-10-06T01:55:00.246Z,14.67
2018-10-06T01:57:28.388Z,12.33
2018-10-06T01:59:56.538Z,10.87
2018-10-06T02:02:24.666Z,13.90
2018-10-06T02:04:52.803Z,13.03
2018-10-06T02:07:20.955Z,12.27
2018-10-06T02:09:49.087Z,13.67
2018-10-06T02:12:17.215Z,12.67
2018-10-06T02:14:45.371Z,13.10
2018-10-06T02:17:13.513Z,16.63
2018-10-06T02:19:41.645Z,14.13
2018-10-06T02:22:09.782Z,11.93
2018-10-06T02:24:37.945Z,16.33
2018-10-06T02:27:06.445Z,11.47
2018-10-06T02:29:34.588Z,13.97
2018-10-06T02:32:02.738Z,11.60
2018-10-06T02:34:30.926Z,12.60
2018-10-06T02:36:59.086Z,15.37
2018-10-06T02:39:27.187Z,15.23
2018-10-06T02:41:55.349Z,14.50
2018-10-06T02:44:23.483Z,12.07
2018-10-06T02:46:51.632Z,11.37
2018-10-06T02:49:19.773Z,13.40
2018-10-06T02:51:47.913Z,12.47
2018-10-06T02:54:16.091Z,11.43
2018-10-06T02:56:44.197Z,12.70
2018-10-06T02:59:12.337Z,13.20
2018-10-06T03:01:40.465Z,15.70
2018-10-06T03:04:09.008Z,12.13
2018-10-06T03:06:37.114Z,12.47
2018-10-06T03:09:06.866Z,12.30
2018-10-06T03:11:34.988Z,11.60
2018-10-06T03:14:03.135Z,12.00
2018-10-06T03:16:31.275Z,14.37
2018-10-06T03:18:59.409Z,13.60
2018-10-06T03:21:27.532Z,11.77
2018-10-06T03:23:55.657Z,15.60
2018-10-06T03:26:23.775Z,10.83
2018-10-06T03:31:27.389Z,11.20
2018-10-06T03:33:55.518Z,10.47
2018-10-06T03:36:23.674Z,11.40
2018-10-06T03:38:51.794Z,12.70
2018-10-06T03:41:19.926Z,11.83
2018-10-06T03:43:48.044Z,10.97
2018-10-06T03:46:16.173Z,14.17
2018-10-06T03:48:44.309Z,15.97
2018-10-06T03:51:12.429Z,12.27
2018-10-06T03:53:40.573Z,16.43
2018-10-06T03:56:08.725Z,13.93
2018-10-06T03:58:36.873Z,11.67
2018-10-06T04:01:05.030Z,13.20
2018-10-06T04:03:33.153Z,12.37
2018-10-06T04:06:01.315Z,13.00
2018-10-06T04:08:29.603Z,14.57
2018-10-06T04:10:57.762Z,13.33
2018-10-06T04:13:25.905Z,13.17
2018-10-06T04:15:54.057Z,12.27
2018-10-06T04:18:22.194Z,14.30
2018-10-06T04:20:50.341Z,12.47
2018-10-06T04:23:18.485Z,12.10
2018-10-06T04:25:46.619Z,13.37
2018-10-06T04:28:14.828Z,15.87
2018-10-06T04:30:42.918Z,14.23
2018-10-06T04:33:11.059Z,15.57
2018-10-06T04:35:39.193Z,10.70
2018-10-06T04:38:07.326Z,11.27
2018-10-06T04:40:35.557Z,11.70
2018-10-06T04:43:03.709Z,11.90
2018-10-06T04:45:31.834Z,11.77
2018-10-06T04:47:59.978Z,12.17
2018-10-06T04:50:28.097Z,12.33
2018-10-06T04:52:56.261Z,11.53
2018-10-06T04:55:24.377Z,12.50
2018-10-06T04:57:52.505Z,16.97
2018-10-06T05:00:20.643Z,14.30
2018-10-06T05:02:48.757Z,17.13
2018-10-06T05:05:16.929Z,13.57
2018-10-06T05:07:45.061Z,11.83
2018-10-06T05:10:13.258Z,13.63
2018-10-06T05:12:41.385Z,16.47
2018-10-06T05:15:09.525Z,12.33
2018-10-06T05:17:37.665Z,11.73
2018-10-06T05:20:06.033Z,14.27
2018-10-06T05:22:34.158Z,12.57
2018-10-06T05:25:02.474Z,14.73
2018-10-06T05:27:30.613Z,12.77
2018-10-06T05:29:58.749Z,13.07
2018-10-06T05:32:26.908Z,14.03
2018-10-06T05:34:55.082Z,13.40
2018-10-06T05:37:23.242Z,12.70
2018-10-06T05:39:51.394Z,13.77
2018-10-06T05:42:19.646Z,14.50
2018-10-06T05:44:47.757Z,14.07
2018-10-06T05:47:15.894Z,14.53
2018-10-06T05:49:44.022Z,13.60
2018-10-06T05:52:12.145Z,13.33
2018-10-06T05:54:40.278Z,15.20
2018-10-06T05:57:08.626Z,14.93
2018-10-06T05:59:36.782Z,16.90
2018-10-06T06:02:04.901Z,16.27
2018-10-06T06:04:33.079Z,13.07
2018-10-06T06:07:01.226Z,14.67
2018-10-06T06:09:29.371Z,13.10
2018-10-06T06:11:57.517Z,14.27
2018-10-06T06:14:25.738Z,15.37
2018-10-06T06:16:53.907Z,13.23
2018-10-06T06:19:22.017Z,15.67
2018-10-06T06:21:50.161Z,13.43
2018-10-06T06:24:18.305Z,13.37
2018-10-06T06:26:46.470Z,12.67
2018-10-06T06:29:14.654Z,12.90
2018-10-06T06:31:42.949Z,14.63
2018-10-06T06:34:11.150Z,12.57
2018-10-06T06:36:39.301Z,13.90
2018-10-06T06:39:08.490Z,12.93
2018-10-06T06:41:36.652Z,15.60
2018-10-06T06:44:04.816Z,14.43
2018-10-06T06:46:32.908Z,13.30
2018-10-06T06:49:01.048Z,14.27
2018-10-06T06:51:29.174Z,11.77
2018-10-06T06:53:57.305Z,14.77
2018-10-06T06:56:25.458Z,10.93
2018-10-06T06:58:53.602Z,13.93
2018-10-06T07:01:21.721Z,10.70
2018-10-06T07:03:49.854Z,10.77
2018-10-06T07:06:17.997Z,10.27
2018-10-06T07:08:46.112Z,11.53
2018-10-06T07:11:14.343Z,10.40
2018-10-06T07:13:42.473Z,10.83
2018-10-06T07:16:10.627Z,11.57
2018-10-06T07:18:39.073Z,12.77
2018-10-06T07:21:07.450Z,12.77
2018-10-06T07:23:35.671Z,13.03
2018-10-06T07:26:03.821Z,10.97
2018-10-06T07:28:31.981Z,11.73
2018-10-06T07:31:00.097Z,10.93
2018-10-06T07:33:28.222Z,9.93
2018-10-06T07:35:56.358Z,9.90
2018-10-06T07:38:24.521Z,8.63
2018-10-06T07:40:52.694Z,8.97
2018-10-06T07:43:20.851Z,10.37
2018-10-06T07:45:49.098Z,10.90
2018-10-06T07:48:17.245Z,8.90
2018-10-06T07:50:45.390Z,8.30
2018-10-06T07:53:13.602Z,11.50
2018-10-06T07:55:41.767Z,8.97
2018-10-06T07:58:09.897Z,8.40
2018-10-06T08:00:38.086Z,9.93
2018-10-06T08:03:06.488Z,8.13
2018-10-06T08:05:34.618Z,10.53
2018-10-06T08:08:03.041Z,7.60
2018-10-06T08:10:31.198Z,10.83
2018-10-06T08:12:59.338Z,8.37
2018-10-06T08:15:27.448Z,8.83
2018-10-06T08:17:55.602Z,8.87
2018-10-06T08:20:23.733Z,7.70
2018-10-06T08:22:51.877Z,6.97
2018-10-06T08:25:20.007Z,7.30
2018-10-06T08:27:48.141Z,7.67
2018-10-06T08:30:16.314Z,6.50
2018-10-06T08:32:44.478Z,6.43
2018-10-06T08:35:12.609Z,7.60
2018-10-06T08:37:40.742Z,6.00
2018-10-06T08:40:08.870Z,6.67
2018-10-06T08:42:37.091Z,7.63
2018-10-06T08:45:05.554Z,9.00
2018-10-06T08:47:33.736Z,6.37
2018-10-06T08:50:01.843Z,5.87
2018-10-06T08:52:30.089Z,7.27
2018-10-06T08:54:58.256Z,7.13
2018-10-06T08:57:26.397Z,9.10
2018-10-06T08:59:55.557Z,7.20
2018-10-06T09:02:23.706Z,5.40
2018-10-06T09:04:51.842Z,5.63
2018-10-06T09:07:20.008Z,7.57
2018-10-06T09:09:48.162Z,6.97
2018-10-06T09:12:16.566Z,6.13
2018-10-06T09:14:44.729Z,7.17
2018-10-06T09:17:12.889Z,5.67
2018-10-06T09:19:41.028Z,5.23
2018-10-06T09:22:09.196Z,7.80
2018-10-06T09:24:37.331Z,6.30
2018-10-06T09:27:05.908Z,6.00
2018-10-06T09:29:34.086Z,4.50
2018-10-06T09:32:02.354Z,5.60
2018-10-06T09:34:30.501Z,6.10
2018-10-06T09:36:58.734Z,7.17
2018-10-06T09:39:26.883Z,4.53
2018-10-06T09:41:55.072Z,6.23
2018-10-06T09:44:23.182Z,5.43
2018-10-06T09:46:51.355Z,7.20
2018-10-06T09:49:19.523Z,5.57
2018-10-06T09:51:47.663Z,5.20
2018-10-06T09:54:15.837Z,5.20
2018-10-06T09:56:44.322Z,8.03
2018-10-06T09:59:12.455Z,7.23
2018-10-06T10:01:45.827Z,6.30
2018-10-06T10:04:15.712Z,6.00
2018-10-06T10:06:43.864Z,5.00
2018-10-06T10:09:13.693Z,5.10
2018-10-06T10:11:41.836Z,4.20
2018-10-06T10:14:10.444Z,5.60
2018-10-06T10:16:38.618Z,3.70
2018-10-06T10:19:06.997Z,4.80
2018-10-06T10:21:35.370Z,9.60
2018-10-06T10:24:03.542Z,7.77
2018-10-06T10:26:32.136Z,5.60
2018-10-06T10:29:00.364Z,5.43
2018-10-06T10:31:28.449Z,7.07
2018-10-06T10:33:56.601Z,5.13
2018-10-06T10:36:24.822Z,4.10
2018-10-06T10:38:53.032Z,6.93
2018-10-06T10:41:21.174Z,4.87
2018-10-06T10:43:49.419Z,6.07
2018-10-06T10:46:17.493Z,4.57
2018-10-06T10:48:45.641Z,6.17
2018-10-06T10:51:13.762Z,4.50
2018-10-06T10:53:41.910Z,4.60
2018-10-06T10:56:10.106Z,5.30
2018-10-06T10:58:38.234Z,5.70
2018-10-06T11:01:06.418Z,4.83
2018-10-06T11:03:34.561Z,6.10
2018-10-06T11:06:02.807Z,5.03
2018-10-06T11:08:30.937Z,5.90
2018-10-06T11:10:59.121Z,8.10
2018-10-06T11:13:27.367Z,6.03
2018-10-06T11:15:55.566Z,5.93
2018-10-06T11:18:23.701Z,3.97
2018-10-06T11:20:51.858Z,3.90
2018-10-06T11:23:20.078Z,4.67
2018-10-06T11:25:48.246Z,5.70
2018-10-06T11:28:16.422Z,4.80
2018-10-06T11:30:44.674Z,9.47
2018-10-06T11:33:12.809Z,6.07
2018-10-06T11:35:41.034Z,4.87
2018-10-06T11:38:09.247Z,8.10
2018-10-06T11:40:37.318Z,6.23
2018-10-06T11:43:05.515Z,6.27
2018-10-06T11:45:33.671Z,5.60
2018-10-06T11:48:01.815Z,5.67
2018-10-06T11:50:29.973Z,6.90
2018-10-06T11:52:58.118Z,5.47
2018-10-06T11:55:26.318Z,5.10
2018-10-06T11:57:54.502Z,3.40
2018-10-06T12:00:22.819Z,3.50
2018-10-06T12:02:50.850Z,5.07
2018-10-06T12:05:19.002Z,4.73
2018-10-06T12:07:47.141Z,3.90
2018-10-06T12:10:15.283Z,8.33
2018-10-06T12:12:43.451Z,3.90
2018-10-06T12:15:11.576Z,5.87
2018-10-06T12:17:39.701Z,4.60
2018-10-06T12:20:07.845Z,4.83
2018-10-06T12:22:35.969Z,3.90
2018-10-06T12:25:04.134Z,4.53
2018-10-06T12:27:32.294Z,4.17
2018-10-06T12:30:00.522Z,6.70
2018-10-06T12:32:28.643Z,3.33
2018-10-06T12:34:56.899Z,4.90
2018-10-06T12:37:24.967Z,3.20
2018-10-06T12:39:53.200Z,5.83
2018-10-06T12:42:21.667Z,4.87
2018-10-06T12:44:49.809Z,4.83
2018-10-06T12:47:17.942Z,5.70
2018-10-06T12:49:47.190Z,4.13
2018-10-06T12:52:15.980Z,4.60
2018-10-06T12:54:44.142Z,4.13
2018-10-06T12:57:12.357Z,5.43
2018-10-06T12:59:40.518Z,3.13
2018-10-06T13:02:08.686Z,10.23
2018-10-06T13:04:37.110Z,5.63
2018-10-06T13:07:05.257Z,7.47
2018-10-06T13:09:33.418Z,5.33
2018-10-06T13:12:01.667Z,6.77
2018-10-06T13:14:29.735Z,3.43
2018-10-06T13:16:57.874Z,5.90
2018-10-06T13:19:25.997Z,4.63
2018-10-06T13:21:54.126Z,5.10
2018-10-06T13:24:22.278Z,3.07
2018-10-06T13:26:50.406Z,2.90
2018-10-06T13:29:18.545Z,5.63
2018-10-06T13:31:46.715Z,4.47
2018-10-06T13:34:14.802Z,4.47
2018-10-06T13:36:42.940Z,5.13
2018-10-06T13:39:11.356Z,5.33
2018-10-06T13:41:39.474Z,4.03
2018-10-06T13:44:07.613Z,8.63
2018-10-06T13:46:35.772Z,3.93
2018-10-06T13:49:03.886Z,3.13
2018-10-06T13:51:32.021Z,6.10
2018-10-06T13:54:00.450Z,7.33
2018-10-06T13:56:28.600Z,3.53
2018-10-06T13:58:56.727Z,5.27
2018-10-06T14:01:24.874Z,5.93
2018-10-06T14:03:53.070Z,5.37
2018-10-06T14:06:21.213Z,3.53
2018-10-06T14:08:49.357Z,4.03
2018-10-06T14:11:17.482Z,5.27
2018-10-06T14:13:45.612Z,4.57
2018-10-06T14:16:13.752Z,3.70
2018-10-06T14:18:41.889Z,4.97
2018-10-06T14:21:10.062Z,5.07
2018-10-06T14:23:38.334Z,3.50
2018-10-06T14:26:07.204Z,5.60
2018-10-06T14:28:35.489Z,5.10
2018-10-06T14:31:03.714Z,5.53
2018-10-06T14:33:31.835Z,3.73
2018-10-06T14:36:00.042Z,4.47
2018-10-06T14:38:28.215Z,7.20
2018-10-06T14:40:56.693Z,4.27
2018-10-06T14:43:24.837Z,5.33
2018-10-06T14:45:52.999Z,4.40
2018-10-06T14:48:21.136Z,2.53
2018-10-06T14:50:49.320Z,4.53
2018-10-06T14:53:17.446Z,5.13
2018-10-06T14:55:45.598Z,4.10
2018-10-06T14:58:13.763Z,6.30
2018-10-06T15:00:42.508Z,4.00
2018-10-06T15:03:10.650Z,6.43
2018-10-06T15:05:38.815Z,4.10
2018-10-06T15:08:06.950Z,3.90
2018-10-06T15:10:35.075Z,5.10
2018-10-06T15:13:03.390Z,3.27
2018-10-06T15:15:31.590Z,6.30
2018-10-06T15:17:59.769Z,7.93
2018-10-06T15:20:28.103Z,4.90
2018-10-06T15:22:56.354Z,5.33
2018-10-06T15:25:24.493Z,2.53
2018-10-06T15:27:52.643Z,6.80
2018-10-06T15:30:20.772Z,2.80
2018-10-06T15:32:48.920Z,5.37
2018-10-06T15:35:17.064Z,5.93
2018-10-06T15:37:45.187Z,5.77
2018-10-06T15:40:13.329Z,4.03
2018-10-06T15:42:41.586Z,3.83
2018-10-06T15:45:09.824Z,3.90
2018-10-06T15:47:37.975Z,3.37
2018-10-06T15:50:06.282Z,3.97
2018-10-06T15:52:34.427Z,4.37
2018-10-06T15:55:02.551Z,6.10
2018-10-06T15:57:30.695Z,3.23
2018-10-06T15:59:58.893Z,6.27
2018-10-06T16:02:27.079Z,6.77
2018-10-06T16:04:55.162Z,4.07
2018-10-06T16:07:23.310Z,4.53
2018-10-06T16:09:51.435Z,4.70
2018-10-06T16:12:19.759Z,5.27
2018-10-06T16:14:47.954Z,6.77
2018-10-06T16:17:16.104Z,5.40
2018-10-06T16:19:44.249Z,3.77
2018-10-06T16:22:12.533Z,4.73
2018-10-06T16:24:40.709Z,5.53
2018-10-06T16:27:09.033Z,4.23
2018-10-06T16:29:37.157Z,5.53
2018-10-06T16:32:05.771Z,5.30
2018-10-06T16:34:33.989Z,3.23
2018-10-06T16:37:02.149Z,4.63
2018-10-06T16:39:30.650Z,4.87
2018-10-06T16:41:58.801Z,5.03
2018-10-06T16:44:27.041Z,3.57
2018-10-06T16:46:55.375Z,7.27
2018-10-06T16:49:23.574Z,5.03
2018-10-06T16:51:51.709Z,4.53
2018-10-06T16:54:19.833Z,5.67
2018-10-06T16:56:47.969Z,4.00
2018-10-06T16:59:16.113Z,5.37
2018-10-06T17:01:44.291Z,4.63
2018-10-06T17:04:12.481Z,6.40
2018-10-06T17:06:40.641Z,6.77
2018-10-06T17:09:10.085Z,5.30
2018-10-06T17:11:38.301Z,8.20
2018-10-06T17:14:06.821Z,6.33
2018-10-06T17:16:34.958Z,7.47
2018-10-06T17:19:03.384Z,7.53
2018-10-06T17:21:31.521Z,7.27
2018-10-06T17:23:59.727Z,5.67
2018-10-06T17:26:28.018Z,6.17
2018-10-06T17:28:56.159Z,6.97
2018-10-06T17:31:24.339Z,4.83
2018-10-06T17:33:52.504Z,6.57
2018-10-06T17:36:20.691Z,6.03
2018-10-06T17:38:48.913Z,5.87
2018-10-06T17:41:16.973Z,6.63
2018-10-06T17:43:45.110Z,7.27
2018-10-06T17:46:13.241Z,7.30
2018-10-06T17:48:41.397Z,6.80
2018-10-06T17:51:09.773Z,6.57
2018-10-06T17:53:37.915Z,6.00
2018-10-06T17:56:06.463Z,7.47
2018-10-06T17:58:34.682Z,6.03
2018-10-06T18:01:02.849Z,6.60
2018-10-06T18:03:31.020Z,5.53
2018-10-06T18:05:59.198Z,6.10
2018-10-06T18:08:27.357Z,9.53
2018-10-06T18:10:55.607Z,6.07
2018-10-06T18:13:24.511Z,6.67
2018-10-06T18:15:52.680Z,7.50
2018-10-06T18:18:20.842Z,4.63
2018-10-06T18:20:49.040Z,5.73
2018-10-06T18:23:17.257Z,5.53
2018-10-06T18:25:45.411Z,6.20
2018-10-06T18:28:13.521Z,7.33
2018-10-06T18:30:42.024Z,6.73
2018-10-06T18:33:10.210Z,5.73
2018-10-06T18:35:38.379Z,7.37
2018-10-06T18:38:06.592Z,5.57
2018-10-06T18:40:34.853Z,5.60
2018-10-06T18:43:03.069Z,8.23
2018-10-06T18:45:31.298Z,7.87
2018-10-06T18:47:59.451Z,6.43
2018-10-06T18:50:27.718Z,6.63
2018-10-06T18:52:55.849Z,8.83
2018-10-06T18:55:24.015Z,7.67
2018-10-06T18:57:52.179Z,6.83
2018-10-06T19:00:20.325Z,7.50
2018-10-06T19:02:48.462Z,5.83
2018-10-06T19:05:16.590Z,8.73
2018-10-06T19:07:44.730Z,7.70
2018-10-06T19:10:12.877Z,10.20
2018-10-06T19:12:40.970Z,8.67
2018-10-06T19:15:09.390Z,9.67
2018-10-06T19:17:37.593Z,10.63
2018-10-06T19:20:06.360Z,6.93
2018-10-06T19:22:34.532Z,7.80
2018-10-06T19:25:02.718Z,8.57
2018-10-06T19:27:30.835Z,8.33
2018-10-06T19:29:58.974Z,8.77
2018-10-06T19:32:27.161Z,7.00
2018-10-06T19:34:55.386Z,7.20
2018-10-06T19:37:23.522Z,6.47
2018-10-06T19:39:52.028Z,8.93
2018-10-06T19:42:20.127Z,6.43
2018-10-06T19:44:48.270Z,8.77
2018-10-06T19:47:16.382Z,8.00
2018-10-06T19:49:44.525Z,6.50
2018-10-06T19:52:12.647Z,8.20
2018-10-06T19:54:40.920Z,6.33
2018-10-06T19:57:09.269Z,7.00
2018-10-06T19:59:37.482Z,9.97
2018-10-06T20:02:05.737Z,5.93
2018-10-06T20:04:33.877Z,7.13
2018-10-06T20:07:02.007Z,9.77
2018-10-06T20:09:30.158Z,6.67
2018-10-06T20:11:58.353Z,8.07
2018-10-06T20:14:26.521Z,7.30
2018-10-06T20:16:54.662Z,6.57
2018-10-06T20:19:22.818Z,7.10
2018-10-06T20:21:51.086Z,8.80
2018-10-06T20:24:19.643Z,10.67
2018-10-06T20:26:48.894Z,8.87
2018-10-06T20:29:17.017Z,9.17
2018-10-06T20:31:45.162Z,7.87
2018-10-06T20:34:13.291Z,7.73
2018-10-06T20:36:41.511Z,9.17
2018-10-06T20:39:10.466Z,10.93
2018-10-06T20:41:38.607Z,8.33
2018-10-06T20:44:06.767Z,9.67
2018-10-06T20:46:34.929Z,7.83
2018-10-06T20:49:03.057Z,8.20
2018-10-06T20:51:31.221Z,6.80
2018-10-06T20:53:59.357Z,8.90
2018-10-06T20:56:27.620Z,9.80
2018-10-06T20:58:55.794Z,7.70
2018-10-06T21:01:23.921Z,8.40
2018-10-06T21:03:52.054Z,8.57
2018-10-06T21:06:20.178Z,8.07
2018-10-06T21:08:48.324Z,10.03
2018-10-06T21:11:16.445Z,6.83
2018-10-06T21:13:44.599Z,10.90
2018-10-06T21:16:12.745Z,9.47
2018-10-06T21:18:40.892Z,8.27
2018-10-06T21:21:09.021Z,10.23
2018-10-06T21:23:37.177Z,9.77
2018-10-06T21:26:05.299Z,8.40
2018-10-06T21:28:33.467Z,8.67
2018-10-06T21:31:01.658Z,7.78
2018-10-06T21:33:29.791Z,7.40
2018-10-06T21:35:57.947Z,10.00
2018-10-06T21:38:26.105Z,7.63
2018-10-06T21:40:54.249Z,7.43
2018-10-06T21:43:22.380Z,8.57
2018-10-06T21:45:50.520Z,8.10
2018-10-06T21:48:18.754Z,10.83
2018-10-06T21:50:46.905Z,8.57
2018-10-06T21:53:15.022Z,8.37
2018-10-06T21:55:43.165Z,8.27
2018-10-06T21:58:11.298Z,8.77
2018-10-06T22:00:39.486Z,10.00
2018-10-06T22:03:07.626Z,9.53
2018-10-06T22:05:35.762Z,9.30
2018-10-06T22:08:03.889Z,8.03
2018-10-06T22:10:32.014Z,8.00
2018-10-06T22:13:00.193Z,9.73
2018-10-06T22:15:28.347Z,8.77
2018-10-06T22:17:56.487Z,9.40
2018-10-06T22:20:24.733Z,12.67
2018-10-06T22:22:52.907Z,10.27
2018-10-06T22:25:21.021Z,17.67
2018-10-06T22:27:49.142Z,8.30
2018-10-06T22:30:17.280Z,8.97
2018-10-06T22:32:45.410Z,9.23
2018-10-06T22:35:13.554Z,7.53
2018-10-06T22:37:41.686Z,8.83
2018-10-06T22:40:09.797Z,9.57
2018-10-06T22:42:37.963Z,7.97
2018-10-06T22:45:06.313Z,15.23
2018-10-06T22:47:34.447Z,14.57
2018-10-06T22:50:02.589Z,10.07
2018-10-06T22:52:30.722Z,8.57
2018-10-06T22:54:58.874Z,10.87
2018-10-06T22:57:26.987Z,8.97
2018-10-06T22:59:55.137Z,8.17
2018-10-06T23:02:23.290Z,9.73
2018-10-06T23:04:51.450Z,8.27
2018-10-06T23:07:19.649Z,11.10
2018-10-06T23:09:47.798Z,12.83
2018-10-06T23:12:15.926Z,11.33
2018-10-06T23:14:44.101Z,10.93
2018-10-06T23:17:12.331Z,11.10
2018-10-06T23:19:40.471Z,11.20
2018-10-06T23:22:08.601Z,9.93
2018-10-06T23:24:36.733Z,10.33
2018-10-06T23:27:05.025Z,10.10
2018-10-06T23:29:33.167Z,9.43
2018-10-06T23:32:01.337Z,8.20
2018-10-06T23:34:29.483Z,9.07
2018-10-06T23:36:57.666Z,10.93
2018-10-06T23:39:25.821Z,8.00
2018-10-06T23:41:53.958Z,8.63
2018-10-06T23:44:22.121Z,10.43
2018-10-06T23:46:50.273Z,11.00
2018-10-06T23:49:18.397Z,8.77
2018-10-06T23:51:46.533Z,10.90
2018-10-06T23:54:14.712Z,8.97
2018-10-06T23:56:42.829Z,11.23
2018-10-06T23:59:10.968Z,8.60
